Time;durP1;ratioP1;P1;durP2;ratioP2;P2;SDS_P1;SDS_P2;PMS_P1;PMS_P2;Temp;Humidity;BMP_temperature;BMP_pressure;BME280_temperature;BME280_humidity;BME280_pressure;Samples;Min_cycle;Max_cycle;Signal;HPM_P1;HPM_P2
2024/01/19 00:00:19;;;;;;;4.40;0.55;;;;;;;-0.08;100.00;99311.84;5072741;28;20110;-71
2024/01/19 00:02:44;;;;;;;5.30;0.75;;;;;;;-0.16;100.00;99306.56;5072762;28;20446;-71
2024/01/19 00:05:11;;;;;;;5.82;0.57;;;;;;;-0.20;100.00;99310.53;5055378;28;20934;-71
2024/01/19 00:07:36;;;;;;;12.77;1.05;;;;;;;-0.26;100.00;99306.75;5071952;28;20036;-72
2024/01/19 00:10:02;;;;;;;2.53;0.57;;;;;;;-0.27;100.00;99320.13;5071813;28;20035;-71
2024/01/19 00:12:27;;;;;;;6.53;1.02;;;;;;;-0.33;100.00;99318.97;5071621;28;20029;-71
2024/01/19 00:14:53;;;;;;;6.25;0.85;;;;;;;-0.31;100.00;99318.78;5071434;28;20043;-72
2024/01/19 00:17:18;;;;;;;6.43;1.02;;;;;;;-0.33;100.00;99315.47;5073177;28;20036;-71
2024/01/19 00:19:43;;;;;;;5.60;0.77;;;;;;;-0.37;100.00;99311.53;5064733;28;20021;-72
2024/01/19 00:22:09;;;;;;;9.27;2.05;;;;;;;-0.36;100.00;99319.31;5080758;28;20036;-71
2024/01/19 00:24:34;;;;;;;11.10;3.17;;;;;;;-0.35;100.00;99317.47;5056395;28;20033;-71
2024/01/19 00:27:00;;;;;;;8.18;2.78;;;;;;;-0.33;100.00;99336.63;5072797;28;20029;-71
2024/01/19 00:29:28;;;;;;;9.05;1.48;;;;;;;-0.34;100.00;99324.41;5072146;28;20043;-72
2024/01/19 00:31:54;;;;;;;9.73;2.05;;;;;;;-0.36;100.00;99321.13;5055598;28;20483;-71
2024/01/19 00:34:20;;;;;;;6.05;1.02;;;;;;;-0.41;100.00;99323.44;5055285;28;20074;-71
2024/01/19 00:36:47;;;;;;;7.03;1.45;;;;;;;-0.56;100.00;99317.97;5078492;28;20028;-72
2024/01/19 00:39:14;;;;;;;5.55;1.23;;;;;;;-0.43;100.00;99333.31;5075616;28;20035;-71
2024/01/19 00:41:40;;;;;;;7.43;1.15;;;;;;;-0.62;100.00;99297.50;5073721;28;20040;-71
2024/01/19 00:44:05;;;;;;;3.47;0.80;;;;;;;-0.41;100.00;99334.00;5073574;28;20490;-71
2024/01/19 00:46:32;;;;;;;5.57;0.70;;;;;;;-0.50;100.00;99341.94;5072935;28;20086;-71
2024/01/19 00:48:58;;;;;;;6.03;0.88;;;;;;;-0.46;100.00;99337.13;5071148;28;20029;-71
2024/01/19 00:51:23;;;;;;;9.68;1.38;;;;;;;-0.44;100.00;99347.53;5055485;28;20033;-71
2024/01/19 00:53:49;;;;;;;5.13;0.77;;;;;;;-0.47;100.00;99349.50;5071620;28;20028;-70
2024/01/19 00:56:35;;;;;;;7.22;1.15;;;;;;;-0.49;100.00;99348.03;5071614;28;20107;-71
2024/01/19 00:59:00;;;;;;;5.53;0.90;;;;;;;-0.50;100.00;99349.84;5071622;28;20024;-71
2024/01/19 01:01:26;;;;;;;5.82;0.65;;;;;;;-0.48;100.00;99350.50;5055216;28;20086;-71
2024/01/19 01:03:51;;;;;;;4.55;0.65;;;;;;;-0.46;100.00;99350.34;5072858;28;20378;-71
2024/01/19 01:06:17;;;;;;;5.97;1.02;;;;;;;-0.45;100.00;99353.81;5071596;28;20047;-71
2024/01/19 01:08:42;;;;;;;7.95;0.80;;;;;;;-0.48;100.00;99355.78;5073330;28;20044;-71
2024/01/19 01:11:08;;;;;;;3.47;0.55;;;;;;;-0.46;100.00;99360.94;5072020;28;20483;-71
2024/01/19 01:13:34;;;;;;;4.35;0.50;;;;;;;-0.50;100.00;99367.50;5071639;28;20035;-70
2024/01/19 01:16:00;;;;;;;5.22;0.50;;;;;;;-0.65;100.00;99342.72;5072152;28;20110;-71
2024/01/19 01:18:26;;;;;;;4.20;0.57;;;;;;;-0.57;100.00;99356.75;5072751;28;20051;-71
2024/01/19 01:20:51;;;;;;;5.03;0.80;;;;;;;-0.47;100.00;99372.47;5072216;28;20499;-71
2024/01/19 01:23:17;;;;;;;4.80;0.70;;;;;;;-0.54;100.00;99366.19;5071885;28;20403;-71
2024/01/19 01:25:42;;;;;;;5.30;0.75;;;;;;;-0.55;100.00;99365.34;5061767;28;20029;-72
2024/01/19 01:28:08;;;;;;;7.60;0.90;;;;;;;-0.48;100.00;99370.81;5072807;28;20028;-71
2024/01/19 01:30:33;;;;;;;5.63;0.73;;;;;;;-0.49;100.00;99377.09;5072012;28;20036;-72
2024/01/19 01:32:59;;;;;;;16.40;1.45;;;;;;;-0.53;100.00;99384.53;5069602;28;20517;-71
2024/01/19 01:35:24;;;;;;;5.90;0.80;;;;;;;-0.66;100.00;99363.03;5070770;28;20056;-71
2024/01/19 01:37:49;;;;;;;3.10;0.55;;;;;;;-0.66;100.00;99359.53;5070167;28;20025;-71
2024/01/19 01:40:15;;;;;;;4.22;0.60;;;;;;;-0.54;100.00;99382.03;5053970;28;20110;-72
2024/01/19 01:42:40;;;;;;;7.28;1.10;;;;;;;-0.53;100.00;99373.97;5071836;28;20086;-71
2024/01/19 01:45:08;;;;;;;3.45;0.50;;;;;;;-0.53;100.00;99383.69;5054485;28;20480;-71
2024/01/19 01:47:34;;;;;;;2.30;0.40;;;;;;;-0.58;100.00;99380.72;5071229;28;20041;-71
2024/01/19 01:50:00;;;;;;;3.83;0.43;;;;;;;-0.54;100.00;99392.59;5070986;28;20036;-71
2024/01/19 01:52:26;;;;;;;2.88;0.52;;;;;;;-0.48;100.00;99384.03;5072165;28;20103;-71
2024/01/19 01:54:52;;;;;;;7.45;0.82;;;;;;;-0.56;100.00;99379.56;5070429;28;20558;-71
2024/01/19 01:57:21;;;;;;;5.72;0.40;;;;;;;-0.46;100.00;99387.34;5072460;28;20039;-70
2024/01/19 01:59:49;;;;;;;4.93;0.47;;;;;;;-0.58;100.00;99363.03;5071373;28;20028;-71
2024/01/19 02:02:15;;;;;;;8.15;1.05;;;;;;;-0.45;100.00;99382.88;5072708;28;20480;-71
2024/01/19 02:04:41;;;;;;;3.88;0.75;;;;;;;-0.44;100.00;99388.00;5072311;28;20111;-71
2024/01/19 02:07:07;;;;;;;4.40;0.60;;;;;;;-0.43;100.00;99387.03;5074085;28;20028;-71
2024/01/19 02:09:32;;;;;;;7.88;0.70;;;;;;;-0.48;100.00;99374.28;5072536;28;20060;-71
2024/01/19 02:11:59;;;;;;;3.47;0.80;;;;;;;-0.39;100.00;99379.59;5070391;28;20075;-71
2024/01/19 02:14:25;;;;;;;6.30;0.73;;;;;;;-0.36;100.00;99373.97;5072286;28;20056;-71
2024/01/19 02:16:52;;;;;;;10.00;1.50;;;;;;;-0.47;100.00;99361.88;5080359;28;20032;-71
2024/01/19 02:19:17;;;;;;;5.28;0.88;;;;;;;-0.33;100.00;99381.56;5070718;28;20025;-71
2024/01/19 02:21:44;;;;;;;8.50;0.80;;;;;;;-0.34;100.00;99393.13;5070235;28;20036;-70
2024/01/19 02:24:15;;;;;;;3.70;0.60;;;;;;;-0.41;100.00;99374.44;5070293;28;20028;-71
2024/01/19 02:26:41;;;;;;;4.93;0.75;;;;;;;-0.36;100.00;99387.19;5070010;28;20028;-71
2024/01/19 02:29:06;;;;;;;8.25;1.35;;;;;;;-0.46;100.00;99376.78;5071762;28;20089;-71
2024/01/19 02:31:32;;;;;;;10.93;1.15;;;;;;;-0.34;100.00;99385.19;5069861;28;20214;-70
2024/01/19 02:33:57;;;;;;;6.47;0.70;;;;;;;-0.38;100.00;99397.09;5070480;28;20035;-71
2024/01/19 02:36:24;;;;;;;4.80;0.85;;;;;;;-0.39;100.00;99387.53;5052820;28;20052;-70
2024/01/19 02:38:49;;;;;;;4.97;0.70;;;;;;;-0.33;100.00;99402.69;5071908;28;20033;-71
2024/01/19 02:41:15;;;;;;;3.83;1.00;;;;;;;-0.31;100.00;99390.97;5071285;28;20052;-71
2024/01/19 02:43:40;;;;;;;4.43;1.00;;;;;;;-0.30;100.00;99389.16;5071862;28;20037;-70
2024/01/19 02:46:06;;;;;;;6.68;1.02;;;;;;;-0.28;100.00;99385.38;5074770;28;20399;-71
2024/01/19 02:48:31;;;;;;;7.18;0.90;;;;;;;-0.19;100.00;99398.59;5073424;28;20028;-71
2024/01/19 02:50:57;;;;;;;7.32;1.00;;;;;;;-0.14;100.00;99398.94;5073622;28;20450;-71
2024/01/19 02:53:22;;;;;;;9.23;0.65;;;;;;;-0.15;100.00;99399.94;5090522;28;20039;-71
2024/01/19 02:55:48;;;;;;;4.63;0.85;;;;;;;-0.15;100.00;99398.09;5074162;28;20608;-71
2024/01/19 02:58:13;;;;;;;4.20;0.85;;;;;;;-0.12;100.00;99395.13;5073604;28;20037;-70
2024/01/19 03:00:39;;;;;;;5.53;0.80;;;;;;;-0.13;100.00;99390.00;5074791;28;20124;-70
2024/01/19 03:03:04;;;;;;;6.03;0.95;;;;;;;-0.08;100.00;99385.06;5056513;28;20032;-71
2024/01/19 03:05:30;;;;;;;3.95;0.80;;;;;;;-0.04;100.00;99395.13;5073697;28;20032;-70
2024/01/19 03:07:55;;;;;;;6.50;0.80;;;;;;;0.07;100.00;99401.09;5090595;28;20036;-71
2024/01/19 03:10:21;;;;;;;9.43;1.45;;;;;;;0.11;100.00;99400.59;5091122;28;20435;-71
2024/01/19 03:12:46;;;;;;;6.00;0.95;;;;;;;-0.02;100.00;99384.38;5056199;28;20048;-71
2024/01/19 03:15:12;;;;;;;5.88;0.93;;;;;;;0.10;100.00;99396.28;5073976;28;20020;-71
2024/01/19 03:17:37;;;;;;;7.97;1.35;;;;;;;0.07;100.00;99403.75;5075068;28;20494;-71
2024/01/19 03:20:05;;;;;;;4.78;0.68;;;;;;;0.10;100.00;99408.66;5072600;28;20064;-71
2024/01/19 03:22:31;;;;;;;5.88;0.68;;;;;;;0.05;100.00;99395.94;5074769;28;20037;-71
2024/01/19 03:24:56;;;;;;;4.57;0.90;;;;;;;0.12;100.00;99414.63;5073771;28;20028;-71
2024/01/19 03:27:22;;;;;;;8.07;0.98;;;;;;;0.15;100.00;99407.19;5073259;28;20032;-70
2024/01/19 03:29:48;;;;;;;6.30;0.88;;;;;;;0.06;100.00;99383.56;5074315;28;20032;-70
2024/01/19 03:32:13;;;;;;;8.20;0.88;;;;;;;-0.04;100.00;99357.28;5072768;28;20047;-70
2024/01/19 03:34:39;;;;;;;7.05;0.77;;;;;;;0.18;100.00;99400.75;5073700;28;20057;-71
2024/01/19 03:37:09;;;;;;;4.78;0.70;;;;;;;0.21;100.00;99389.84;5074150;28;20411;-70
2024/01/19 03:39:34;;;;;;;6.40;0.80;;;;;;;0.16;100.00;99395.59;5055604;28;20054;-70
2024/01/19 03:42:01;;;;;;;6.95;0.52;;;;;;;0.06;100.00;99386.19;5072820;28;20440;-70
2024/01/19 03:44:28;;;;;;;8.02;0.95;;;;;;;-0.16;100.00;99370.03;5073854;28;20250;-70
2024/01/19 03:46:53;;;;;;;5.18;0.43;;;;;;;0.11;100.00;99408.50;5072892;28;20499;-70
2024/01/19 03:49:20;;;;;;;5.38;0.82;;;;;;;0.02;100.00;99400.75;5072881;28;20067;-70
2024/01/19 03:52:06;;;;;;;5.22;0.88;;;;;;;-0.09;100.00;99404.56;5089943;28;20028;-71
2024/01/19 03:54:34;;;;;;;6.45;1.25;;;;;;;-0.06;100.00;99418.28;5073770;28;20035;-71
2024/01/19 03:57:06;;;;;;;10.98;0.88;;;;;;;-0.14;100.00;99418.25;5073779;28;20094;-69
2024/01/19 03:59:32;;;;;;;5.97;0.60;;;;;;;-0.11;100.00;99441.72;5073738;28;20024;-71
2024/01/19 04:01:57;;;;;;;5.45;0.90;;;;;;;-0.15;100.00;99440.41;5072354;28;20028;-70
2024/01/19 04:04:23;;;;;;;11.82;1.13;;;;;;;-0.15;100.00;99440.41;5072699;28;20021;-71
2024/01/19 04:06:49;;;;;;;7.80;0.73;;;;;;;-0.16;100.00;99440.56;5074094;28;20028;-68
2024/01/19 04:09:16;;;;;;;5.68;0.70;;;;;;;-0.12;100.00;99447.19;5074014;28;20033;-71
2024/01/19 04:11:42;;;;;;;5.88;0.68;;;;;;;-0.07;100.00;99445.69;5072171;28;20048;-70
2024/01/19 04:14:08;;;;;;;7.05;0.70;;;;;;;-0.07;100.00;99456.25;5071987;28;20012;-70
2024/01/19 04:16:33;;;;;;;3.80;0.60;;;;;;;-0.03;100.00;99459.44;5072657;28;20390;-71
2024/01/19 04:18:59;;;;;;;7.45;0.70;;;;;;;-0.06;100.00;99457.13;5073414;28;20041;-71
2024/01/19 04:21:24;;;;;;;4.78;0.63;;;;;;;-0.23;100.00;99443.06;5056077;28;20036;-71
2024/01/19 04:23:49;;;;;;;4.47;0.70;;;;;;;-0.13;100.00;99466.66;5055300;28;20119;-71
2024/01/19 04:26:15;;;;;;;4.13;0.52;;;;;;;-0.16;100.00;99465.19;5054759;28;20529;-71
2024/01/19 04:28:40;;;;;;;5.45;0.63;;;;;;;-0.08;100.00;99478.41;5071133;28;20039;-70
2024/01/19 04:31:06;;;;;;;3.17;0.65;;;;;;;-0.06;100.00;99480.91;5072381;28;20246;-71
2024/01/19 04:33:31;;;;;;;4.28;0.60;;;;;;;-0.03;100.00;99484.06;5071673;28;20066;-71
2024/01/19 04:35:57;;;;;;;5.82;0.47;;;;;;;-0.06;100.00;99489.66;5071458;28;20506;-71
2024/01/19 04:38:22;;;;;;;9.23;0.60;;;;;;;-0.02;100.00;99479.59;5073079;28;20055;-70
2024/01/19 04:40:48;;;;;;;5.60;0.80;;;;;;;-0.03;100.00;99489.34;5072930;28;20086;-71
2024/01/19 04:43:13;;;;;;;4.03;0.73;;;;;;;0.01;100.00;99489.84;5054928;28;20033;-71
2024/01/19 04:45:39;;;;;;;7.82;0.90;;;;;;;-0.10;100.00;99480.41;5071562;28;20064;-71
2024/01/19 04:48:04;;;;;;;6.47;0.70;;;;;;;-0.16;100.00;99475.78;5071085;28;20047;-71
2024/01/19 04:50:30;;;;;;;7.20;1.15;;;;;;;0.01;100.00;99502.25;5073515;28;20032;-71
2024/01/19 04:52:55;;;;;;;14.82;1.48;;;;;;;-0.05;100.00;99499.25;5072194;28;20387;-71
2024/01/19 04:55:21;;;;;;;8.18;0.90;;;;;;;-0.08;100.00;99509.31;5071985;28;20040;-71
2024/01/19 04:57:47;;;;;;;7.70;0.75;;;;;;;-0.06;100.00;99504.72;5089195;28;20490;-72
2024/01/19 05:00:14;;;;;;;6.82;0.88;;;;;;;-0.10;100.00;99512.13;5087970;28;20024;-72
2024/01/19 05:02:39;;;;;;;4.22;0.65;;;;;;;-0.16;100.00;99515.44;5072912;28;20041;-72
2024/01/19 05:05:05;;;;;;;6.47;1.10;;;;;;;-0.15;100.00;99518.91;5071997;28;20028;-71
2024/01/19 05:07:30;;;;;;;4.80;0.90;;;;;;;-0.17;100.00;99526.16;5072040;28;20498;-72
2024/01/19 05:09:57;;;;;;;9.75;1.02;;;;;;;-0.21;100.00;99528.28;5071056;28;20487;-72
2024/01/19 05:12:24;;;;;;;4.68;0.60;;;;;;;-0.26;100.00;99533.25;5072654;28;20028;-71
2024/01/19 05:14:49;;;;;;;5.72;0.70;;;;;;;-0.29;100.00;99546.78;5055288;28;20028;-72
2024/01/19 05:17:15;;;;;;;4.60;0.65;;;;;;;-0.20;100.00;99548.44;5070750;28;20038;-72
2024/01/19 05:19:40;;;;;;;3.85;0.52;;;;;;;-0.25;100.00;99561.31;5091756;28;20097;-72
2024/01/19 05:22:06;;;;;;;8.88;1.23;;;;;;;-0.29;100.00;99557.34;5058168;28;20082;-72
2024/01/19 05:24:32;;;;;;;4.53;0.52;;;;;;;-0.34;100.00;99568.38;5057787;28;20035;-72
2024/01/19 05:26:57;;;;;;;6.10;0.60;;;;;;;-0.58;100.00;99526.84;5092102;28;20031;-72
2024/01/19 05:29:23;;;;;;;3.83;0.70;;;;;;;-0.37;100.00;99552.84;5077765;28;20035;-70
2024/01/19 05:31:48;;;;;;;7.53;0.60;;;;;;;-0.42;100.00;99555.16;5081088;28;20521;-72
2024/01/19 05:34:14;;;;;;;5.82;0.60;;;;;;;-0.53;100.00;99542.19;5071594;28;20035;-72
2024/01/19 05:36:40;;;;;;;6.13;1.05;;;;;;;-0.59;100.00;99538.41;5071010;28;20024;-71
2024/01/19 05:39:07;;;;;;;4.40;0.60;;;;;;;-0.50;100.00;99545.38;5086974;28;20024;-72
2024/01/19 05:41:32;;;;;;;5.72;0.73;;;;;;;-0.34;100.00;99572.84;5088112;28;20028;-71
2024/01/19 05:43:57;;;;;;;7.22;0.65;;;;;;;-0.36;100.00;99574.84;5087958;28;20120;-71
2024/01/19 05:46:23;;;;;;;7.75;1.00;;;;;;;-0.51;100.00;99545.53;5071310;28;20391;-71
2024/01/19 05:48:48;;;;;;;5.97;0.80;;;;;;;-0.32;100.00;99597.31;5071052;28;20087;-71
2024/01/19 05:51:15;;;;;;;1.42;0.57;;;;;;;-0.33;100.00;99598.28;5072013;28;20033;-72
2024/01/19 05:53:41;;;;;;;3.40;0.60;;;;;;;-0.29;100.00;99595.19;5071849;28;20032;-72
2024/01/19 05:56:06;;;;;;;4.18;1.02;;;;;;;-0.34;100.00;99605.38;5070833;28;20047;-72
2024/01/19 05:58:32;;;;;;;6.47;1.10;;;;;;;-0.38;100.00;99601.41;5072117;28;20024;-71
2024/01/19 06:01:02;;;;;;;6.50;1.00;;;;;;;-0.44;100.00;99599.41;5071015;28;20159;-72
2024/01/19 06:03:27;;;;;;;4.78;1.00;;;;;;;-0.38;100.00;99619.09;5054134;28;20064;-71
2024/01/19 06:05:53;;;;;;;5.20;0.80;;;;;;;-0.40;100.00;99629.81;5054147;28;20057;-71
2024/01/19 06:08:24;;;;;;;3.75;0.47;;;;;;;-0.40;100.00;99628.97;5053715;28;20032;-71
2024/01/19 06:10:49;;;;;;;5.30;0.63;;;;;;;-0.42;100.00;99630.97;5071441;28;20481;-71
2024/01/19 06:13:16;;;;;;;5.97;0.70;;;;;;;-0.45;100.00;99633.91;5071073;28;20067;-70
2024/01/19 06:15:41;;;;;;;5.75;1.13;;;;;;;-0.43;100.00;99637.22;5071224;28;20048;-70
2024/01/19 06:18:07;;;;;;;6.35;0.70;;;;;;;-0.58;100.00;99626.41;5070798;28;20482;-71
2024/01/19 06:20:39;;;;;;;5.28;0.80;;;;;;;-0.53;100.00;99656.69;5074933;28;20040;-71
2024/01/19 06:23:04;;;;;;;6.03;1.10;;;;;;;-0.58;100.00;99658.13;5075031;28;20031;-71
2024/01/19 06:25:29;;;;;;;5.28;0.65;;;;;;;-0.67;100.00;99662.50;5074520;28;20029;-71
2024/01/19 06:27:57;;;;;;;7.38;1.20;;;;;;;-0.68;100.00;99658.22;5057504;28;20036;-71
2024/01/19 06:30:22;;;;;;;5.13;1.00;;;;;;;-0.64;100.00;99664.00;5074177;28;20048;-70
2024/01/19 06:32:48;;;;;;;3.22;0.70;;;;;;;-0.62;100.00;99665.53;5074240;28;20079;-71
2024/01/19 06:35:13;;;;;;;4.93;0.80;;;;;;;-0.62;100.00;99672.63;5074223;28;20040;-71
2024/01/19 06:37:39;;;;;;;7.47;1.40;;;;;;;-0.61;100.00;99680.38;5057783;28;20091;-71
2024/01/19 06:40:06;;;;;;;6.78;0.90;;;;;;;-0.50;100.00;99677.50;5074059;28;20025;-70
2024/01/19 06:42:32;;;;;;;6.47;1.05;;;;;;;-0.37;100.00;99677.06;5074708;28;20279;-70
2024/01/19 06:44:58;;;;;;;4.18;0.75;;;;;;;-0.35;100.00;99679.56;5091200;28;20486;-71
2024/01/19 06:47:24;;;;;;;6.13;0.80;;;;;;;-0.39;100.00;99686.97;5073924;28;20075;-71
2024/01/19 06:49:50;;;;;;;5.32;0.65;;;;;;;-0.35;100.00;99687.50;5074872;28;20029;-70
2024/01/19 06:52:15;;;;;;;6.70;0.68;;;;;;;-0.40;100.00;99693.22;5073914;28;20024;-72
2024/01/19 06:54:41;;;;;;;7.03;1.27;;;;;;;-0.39;100.00;99702.00;5075839;28;20087;-71
2024/01/19 06:57:06;;;;;;;5.93;1.15;;;;;;;-0.37;100.00;99692.91;5074164;28;20036;-71
2024/01/19 06:59:32;;;;;;;5.00;0.77;;;;;;;-0.37;100.00;99692.91;5074311;28;20052;-71
2024/01/19 07:01:57;;;;;;;6.93;1.48;;;;;;;-0.40;100.00;99685.31;5090737;28;20414;-70
2024/01/19 07:04:24;;;;;;;10.60;1.00;;;;;;;-0.30;100.00;99695.75;5073713;28;20024;-71
2024/01/19 07:06:49;;;;;;;10.63;1.13;;;;;;;-0.38;100.00;99707.13;5075494;28;20031;-71
2024/01/19 07:09:17;;;;;;;5.93;1.02;;;;;;;-0.35;100.00;99703.34;5056540;28;20119;-72
2024/01/19 07:11:43;;;;;;;8.77;1.15;;;;;;;-0.59;100.00;99677.59;5075355;28;20028;-71
2024/01/19 07:14:09;;;;;;;9.52;0.88;;;;;;;-0.41;100.00;99702.16;5073359;28;20115;-72
2024/01/19 07:16:39;;;;;;;6.75;1.35;;;;;;;-0.43;100.00;99682.16;5074115;28;20024;-72
2024/01/19 07:19:05;;;;;;;6.57;1.33;;;;;;;-0.32;100.00;99705.69;5073301;28;20032;-71
2024/01/19 07:21:30;;;;;;;4.57;0.93;;;;;;;-0.25;100.00;99709.34;5090202;28;20028;-72
2024/01/19 07:23:55;;;;;;;6.97;1.02;;;;;;;-0.25;100.00;99699.59;5073088;28;20036;-70
2024/01/19 07:26:21;;;;;;;8.50;1.10;;;;;;;-0.24;100.00;99711.00;5072976;28;20107;-70
2024/01/19 07:28:46;;;;;;;8.60;0.98;;;;;;;-0.19;100.00;99708.75;5074126;28;20037;-71
2024/01/19 07:31:12;;;;;;;10.07;1.10;;;;;;;-0.25;100.00;99704.06;5071955;28;20112;-71
2024/01/19 07:33:37;;;;;;;8.40;1.50;;;;;;;-0.25;100.00;99704.06;5072969;28;20025;-72
2024/01/19 07:36:04;;;;;;;11.13;1.73;;;;;;;-0.28;100.00;99709.66;5072364;28;20173;-71
2024/01/19 07:38:29;;;;;;;8.45;1.20;;;;;;;-0.19;100.00;99703.44;5072633;28;20021;-71
2024/01/19 07:40:54;;;;;;;6.85;1.63;;;;;;;-0.25;100.00;99714.66;5073695;28;20044;-71
2024/01/19 07:43:20;;;;;;;7.30;1.30;;;;;;;-0.40;100.00;99695.03;5087496;28;20505;-70
2024/01/19 07:45:46;;;;;;;15.73;3.35;;;;;;;-0.45;100.00;99714.03;5092809;28;20036;-69
2024/01/19 07:48:11;;;;;;;9.55;2.38;;;;;;;-0.49;100.00;99713.50;5086573;28;20028;-70
2024/01/19 07:50:37;;;;;;;5.93;1.90;;;;;;;-0.57;100.00;99705.50;5078569;28;20134;-70
2024/01/19 07:53:02;;;;;;;22.55;6.20;;;;;;;-0.43;100.00;99716.50;5066315;28;20063;-71
2024/01/19 07:55:28;;;;;;;6.70;1.90;;;;;;;-0.34;100.00;99716.41;5094403;28;20111;-70
2024/01/19 07:57:54;;;;;;;11.82;1.63;;;;;;;-0.30;100.00;99716.91;5093300;28;20059;-71
2024/01/19 08:00:19;;;;;;;9.88;3.55;;;;;;;-0.23;100.00;99733.84;5093358;28;20066;-71
2024/01/19 08:02:45;;;;;;;15.60;5.18;;;;;;;-0.15;100.00;99736.50;5093183;28;20115;-70
2024/01/19 08:05:10;;;;;;;11.00;3.55;;;;;;;-0.08;100.00;99740.19;5093498;28;20497;-70
2024/01/19 08:07:37;;;;;;;16.10;3.95;;;;;;;-0.03;100.00;99735.28;5076401;28;20028;-70
2024/01/19 08:10:04;;;;;;;15.35;5.65;;;;;;;0.02;100.00;99737.44;5093187;28;20032;-70
2024/01/19 08:12:29;;;;;;;16.98;7.00;;;;;;;0.04;100.00;99739.94;5094421;28;20119;-70
2024/01/19 08:14:57;;;;;;;22.65;9.00;;;;;;;0.04;100.00;99743.41;5093736;28;20099;-70
2024/01/19 08:17:23;;;;;;;36.58;14.95;;;;;;;0.10;100.00;99745.44;5093896;28;20032;-70
2024/01/19 08:19:48;;;;;;;17.27;6.72;;;;;;;0.16;100.00;99752.69;5093682;28;20093;-70
2024/01/19 08:22:14;;;;;;;63.10;25.23;;;;;;;0.23;100.00;99764.34;5093731;28;20031;-70
2024/01/19 08:24:39;;;;;;;37.15;13.18;;;;;;;0.27;100.00;99775.44;5092601;28;20550;-70
2024/01/19 08:27:05;;;;;;;81.05;30.98;;;;;;;0.26;100.00;99776.41;5093683;28;20031;-70
2024/01/19 08:29:32;;;;;;;27.17;9.02;;;;;;;0.29;100.00;99780.56;5109268;28;20028;-70
2024/01/19 08:31:59;;;;;;;8.20;1.13;;;;;;;0.37;100.00;99778.78;5075658;28;20118;-71
2024/01/19 08:34:24;;;;;;;7.85;2.28;;;;;;;0.50;100.00;99782.78;5091746;28;20104;-70
2024/01/19 08:36:50;;;;;;;9.00;2.55;;;;;;;0.44;100.00;99769.22;5092635;28;20087;-70
2024/01/19 08:39:15;;;;;;;13.68;4.13;;;;;;;0.68;100.00;99787.00;5092350;28;20040;-70
2024/01/19 08:41:42;;;;;;;8.63;1.52;;;;;;;0.77;100.00;99787.88;5073369;28;20032;-71
2024/01/19 08:44:08;;;;;;;5.90;0.75;;;;;;;0.67;100.00;99763.34;5102340;28;20026;-71
2024/01/19 08:46:34;;;;;;;10.70;4.57;;;;;;;0.82;100.00;99790.03;5075821;28;20028;-71
2024/01/19 08:49:00;;;;;;;13.20;3.63;;;;;;;0.65;100.00;99760.84;5093007;28;20075;-71
2024/01/19 08:51:28;;;;;;;4.32;1.10;;;;;;;0.67;100.00;99760.69;5091955;28;20024;-70
2024/01/19 08:53:54;;;;;;;8.88;1.05;;;;;;;0.87;100.00;99791.22;5092463;28;20046;-71
2024/01/19 08:56:23;;;;;;;11.95;1.60;;;;;;;0.74;100.00;99759.06;5091940;28;20111;-71
2024/01/19 08:58:48;;;;;;;7.00;2.70;;;;;;;0.96;100.00;99788.56;5092430;28;20024;-71
2024/01/19 09:01:18;;;;;;;13.93;1.70;;;;;;;1.06;100.00;99790.09;5074993;28;20043;-71
2024/01/19 09:03:44;;;;;;;10.00;3.15;;;;;;;1.12;100.00;99788.59;5092169;28;20050;-71
2024/01/19 09:06:09;;;;;;;11.00;1.48;;;;;;;1.09;100.00;99788.91;5108347;28;20486;-71
2024/01/19 09:08:35;;;;;;;10.93;1.42;;;;;;;1.13;100.00;99790.28;5091745;28;20138;-71
2024/01/19 09:11:01;;;;;;;7.80;1.80;;;;;;;1.17;100.00;99787.13;5091048;28;20505;-71
2024/01/19 09:13:27;;;;;;;10.73;1.33;;;;;;;1.17;100.00;99784.47;5093668;28;20604;-71
2024/01/19 09:15:53;;;;;;;9.40;1.20;;;;;;;1.14;100.00;99786.63;5091502;28;20052;-71
2024/01/19 09:18:19;;;;;;;6.78;1.10;;;;;;;1.11;100.00;99784.31;5092856;28;20033;-71
2024/01/19 09:20:45;;;;;;;6.45;1.08;;;;;;;1.20;100.00;99803.69;5091864;28;20538;-71
2024/01/19 09:23:11;;;;;;;10.30;1.00;;;;;;;1.16;100.00;99804.03;5090612;28;20040;-71
2024/01/19 09:25:36;;;;;;;10.80;1.30;;;;;;;1.06;100.00;99778.66;5095640;28;20043;-71
2024/01/19 09:28:02;;;;;;;14.10;1.50;;;;;;;1.35;100.00;99800.22;5099117;28;20035;-71
2024/01/19 09:30:27;;;;;;;9.75;1.30;;;;;;;1.43;100.00;99802.06;5092058;28;20457;-70
2024/01/19 09:32:53;;;;;;;13.40;1.25;;;;;;;1.56;100.00;99797.09;5083656;28;20036;-70
2024/01/19 09:35:38;;;;;;;13.82;1.50;;;;;;;1.59;100.00;99798.56;5070669;28;20040;-70
2024/01/19 09:38:03;;;;;;;;;;;;;;;1.54;100.00;99803.56;5070931;28;20075;-71
2024/01/19 09:40:29;;;;;;;12.60;1.70;;;;;;;1.50;100.00;99807.53;5072462;28;19916;-70
2024/01/19 09:42:55;;;;;;;14.18;1.40;;;;;;;1.49;100.00;99811.16;5072011;28;20368;-71
2024/01/19 09:45:21;;;;;;;6.10;1.00;;;;;;;1.49;100.00;99819.13;5071038;28;20086;-71
2024/01/19 09:47:55;;;;;;;10.32;0.90;;;;;;;1.47;100.00;99821.13;5072224;28;20060;-70
2024/01/19 09:50:25;;;;;;;7.60;0.98;;;;;;;1.18;100.00;99774.69;5070641;28;20021;-70
2024/01/19 09:52:58;;;;;;;6.88;1.05;;;;;;;1.56;100.00;99834.22;5071324;28;20039;-70
2024/01/19 09:55:27;;;;;;;7.43;0.98;;;;;;;1.57;100.00;99832.41;5075957;28;20016;-71
2024/01/19 09:57:53;;;;;;;4.63;0.80;;;;;;;1.56;100.00;99838.69;5058249;28;20036;-70
2024/01/19 10:00:19;;;;;;;3.95;0.90;;;;;;;1.60;100.00;99840.84;5074198;28;20105;-70
2024/01/19 10:02:52;;;;;;;8.32;0.80;;;;;;;1.52;100.00;99845.31;5075801;28;20032;-70
2024/01/19 10:05:20;;;;;;;5.18;0.90;;;;;;;1.48;100.00;99841.31;5074179;28;20024;-70
2024/01/19 10:07:53;;;;;;;7.63;1.00;;;;;;;1.53;100.00;99855.75;5074218;28;20032;-70
2024/01/19 10:10:19;;;;;;;5.70;1.08;;;;;;;1.65;100.00;99850.94;5074800;28;20020;-70
2024/01/19 10:12:44;;;;;;;4.72;1.33;;;;;;;1.62;100.00;99870.69;5084078;28;20054;-70
2024/01/19 10:15:12;;;;;;;10.35;1.08;;;;;;;1.62;100.00;99864.53;5077837;28;20512;-70
2024/01/19 10:17:39;;;;;;;7.28;1.20;;;;;;;1.58;100.00;99868.50;5074567;28;20031;-71
2024/01/19 10:20:06;;;;;;;5.85;0.73;;;;;;;1.57;100.00;99866.88;5074411;28;20032;-70
2024/01/19 10:22:32;;;;;;;4.57;0.85;;;;;;;1.34;100.00;99840.16;5073907;28;20067;-71
2024/01/19 10:25:04;;;;;;;6.07;0.70;;;;;;;1.50;100.00;99877.28;5072857;28;20040;-71
2024/01/19 10:27:40;;;;;;;3.63;0.80;;;;;;;1.58;100.00;99879.13;5073560;28;20032;-70
2024/01/19 10:30:10;;;;;;;6.55;1.02;;;;;;;1.68;100.00;99878.97;5073213;28;20029;-71
2024/01/19 10:32:37;;;;;;;4.38;1.10;;;;;;;1.66;100.00;99871.19;5075225;28;20076;-71
2024/01/19 10:35:08;;;;;;;4.65;0.80;;;;;;;1.81;100.00;99874.00;5063479;28;20040;-71
2024/01/19 10:37:34;;;;;;;3.92;0.80;;;;;;;1.78;100.00;99891.06;5074204;28;20035;-71
2024/01/19 10:40:33;;;;;;;6.85;0.95;;;;;;;1.72;100.00;99889.06;5073897;28;20024;-71
2024/01/19 10:42:58;;;;;;;11.65;2.08;;;;;;;1.74;100.00;99883.63;5029994;28;20069;-71
2024/01/19 10:45:29;;;;;;;6.20;0.82;;;;;;;1.58;100.00;99863.22;5075354;28;20032;-70
2024/01/19 10:47:57;;;;;;;8.30;1.40;;;;;;;1.79;100.00;99892.75;5074019;28;20024;-71
2024/01/19 10:50:28;;;;;;;10.52;1.30;;;;;;;1.79;100.00;99895.41;5057869;28;20058;-71
2024/01/19 10:52:55;;;;;;;13.07;1.23;;;;;;;1.76;100.00;99906.34;5073435;28;20158;-71
2024/01/19 10:55:31;;;;;;;6.88;1.10;;;;;;;1.61;100.00;99905.31;5073824;28;20035;-71
2024/01/19 10:58:03;;;;;;;7.35;1.00;;;;;;;1.70;100.00;99916.78;5058043;28;20021;-71
2024/01/19 11:00:28;;;;;;;6.63;0.98;;;;;;;1.47;100.00;99892.69;5081151;28;20025;-72
2024/01/19 11:03:00;;;;;;;13.90;2.25;;;;;;;1.54;100.00;99914.91;5073692;28;20055;-71
2024/01/19 11:05:30;;;;;;;12.55;1.88;;;;;;;1.55;100.00;99916.56;5072548;28;20121;-71
2024/01/19 11:08:00;;;;;;;5.03;1.05;;;;;;;1.58;100.00;99925.03;5074922;28;20040;-71
2024/01/19 11:10:29;;;;;;;10.70;2.15;;;;;;;1.42;100.00;99898.47;5074857;28;20028;-74
2024/01/19 11:13:00;;;;;;;4.97;1.25;;;;;;;1.59;100.00;99933.81;5074118;28;20037;-71
2024/01/19 11:15:35;;;;;;;5.57;1.02;;;;;;;1.59;100.00;99928.50;5071218;28;20040;-71
2024/01/19 11:18:03;;;;;;;8.27;1.38;;;;;;;1.61;100.00;99931.81;5074069;28;20028;-70
2024/01/19 11:20:33;;;;;;;10.88;1.55;;;;;;;1.60;100.00;99931.00;5072857;28;20123;-71
2024/01/19 11:23:01;;;;;;;9.35;1.80;;;;;;;1.53;100.00;99916.75;5072904;28;20036;-71